Time;durP1;ratioP1;P1;durP2;ratioP2;P2;SDS_P1;SDS_P2;PMS_P1;PMS_P2;Temp;Humidity;BMP_temperature;BMP_pressure;BME280_temperature;BME280_humidity;BME280_pressure;Samples;Min_cycle;Max_cycle;Signal;HPM_P1;HPM_P2
2021/11/03 00:02:05;;;;;;;13.43;8.80;;;10.20;99.90;;;;;;5063281;28;20696;-72
2021/11/03 00:04:33;;;;;;;12.67;8.30;;;10.20;99.90;;;;;;5045270;28;20214;-72
2021/11/03 00:07:00;;;;;;;11.80;7.63;;;10.20;99.90;;;;;;5060512;28;20615;-72
2021/11/03 00:09:27;;;;;;;14.23;8.13;;;10.20;99.90;;;;;;5064931;28;20202;-72
2021/11/03 00:11:56;;;;;;;13.73;8.50;;;10.20;99.90;;;;;;5058228;28;20689;-72
2021/11/03 00:14:23;;;;;;;13.13;8.07;;;10.20;99.90;;;;;;5039498;28;20207;-73
2021/11/03 00:16:51;;;;;;;11.40;7.40;;;10.20;99.90;;;;;;5056739;28;20239;-72
2021/11/03 00:19:18;;;;;;;13.53;8.37;;;10.20;99.90;;;;;;5043143;28;20223;-72
2021/11/03 00:21:45;;;;;;;12.23;7.87;;;10.20;99.90;;;;;;5051377;28;20240;-72
2021/11/03 00:24:12;;;;;;;11.97;7.97;;;10.20;99.90;;;;;;5056543;28;20252;-72
2021/11/03 00:26:39;;;;;;;11.93;7.73;;;10.20;99.90;;;;;;5050415;28;20607;-72
2021/11/03 00:29:07;;;;;;;12.67;7.30;;;10.20;99.90;;;;;;5060555;28;20206;-73
2021/11/03 00:31:37;;;;;;;12.67;8.00;;;10.20;99.90;;;;;;5042764;28;20192;-72
2021/11/03 00:34:04;;;;;;;14.13;7.97;;;10.20;99.90;;;;;;5053249;28;20232;-72
2021/11/03 00:36:31;;;;;;;13.90;8.60;;;10.20;99.90;;;;;;5056063;28;20610;-71
2021/11/03 00:38:58;;;;;;;16.40;10.30;;;10.20;99.90;;;;;;5060736;28;20200;-70
2021/11/03 00:41:25;;;;;;;18.30;10.83;;;10.20;99.90;;;;;;5052222;28;20212;-71
2021/11/03 00:43:53;;;;;;;19.47;10.63;;;10.10;99.90;;;;;;5041904;28;20230;-72
2021/11/03 00:46:21;;;;;;;16.93;10.00;;;10.10;99.90;;;;;;5044171;28;20282;-72
2021/11/03 00:48:49;;;;;;;20.07;10.17;;;10.10;99.90;;;;;;5054693;28;20211;-71
2021/11/03 00:51:17;;;;;;;20.43;10.03;;;10.10;99.90;;;;;;5044845;28;20211;-72
2021/11/03 00:53:45;;;;;;;13.93;9.07;;;10.10;99.90;;;;;;5056541;28;20670;-72
2021/11/03 00:56:13;;;;;;;13.37;8.27;;;10.10;99.90;;;;;;5062181;28;20718;-72
2021/11/03 00:58:40;;;;;;;15.27;8.67;;;10.10;99.90;;;;;;5060087;28;20273;-71
2021/11/03 01:01:08;;;;;;;17.43;9.73;;;10.10;99.90;;;;;;5064791;28;20704;-70
2021/11/03 01:03:36;;;;;;;16.17;10.03;;;10.10;99.90;;;;;;5061263;28;20256;-71
2021/11/03 01:06:04;;;;;;;15.47;8.43;;;10.10;99.90;;;;;;5063365;28;20542;-71
2021/11/03 01:08:32;;;;;;;12.97;8.63;;;10.10;99.90;;;;;;5052744;28;20204;-71
2021/11/03 01:10:59;;;;;;;13.50;8.40;;;10.10;99.90;;;;;;5051029;28;20218;-71
2021/11/03 01:13:27;;;;;;;12.87;7.70;;;10.10;99.90;;;;;;5060703;28;20204;-71
2021/11/03 01:15:57;;;;;;;13.23;7.53;;;10.10;99.90;;;;;;5058711;28;20246;-71
2021/11/03 01:18:25;;;;;;;10.80;7.40;;;10.10;99.90;;;;;;5058088;28;20226;-71
2021/11/03 01:20:53;;;;;;;14.17;8.30;;;10.10;99.90;;;;;;5059250;28;20217;-71
2021/11/03 01:23:21;;;;;;;12.67;7.83;;;10.10;99.90;;;;;;5055795;28;20225;-71
2021/11/03 01:25:48;;;;;;;13.30;7.90;;;10.10;99.90;;;;;;5057636;28;20220;-71
2021/11/03 01:28:16;;;;;;;14.40;9.13;;;10.10;99.90;;;;;;5052616;28;20577;-71
2021/11/03 01:30:45;;;;;;;11.80;7.73;;;10.10;99.90;;;;;;5051915;28;20318;-71
2021/11/03 01:33:13;;;;;;;12.67;7.43;;;10.10;99.90;;;;;;5050504;28;20564;-71
2021/11/03 01:35:40;;;;;;;11.17;7.33;;;10.10;99.90;;;;;;5055145;28;20551;-71
2021/11/03 01:38:09;;;;;;;11.73;7.07;;;10.10;99.90;;;;;;5050090;28;20285;-71
2021/11/03 01:40:44;;;;;;;11.00;7.00;;;10.20;99.90;;;;;;5055063;28;20207;-71
2021/11/03 01:43:18;;;;;;;10.70;7.33;;;10.10;99.90;;;;;;5043288;28;20235;-71
2021/11/03 01:45:48;;;;;;;10.90;7.10;;;10.20;99.90;;;;;;5052487;28;20299;-71
2021/11/03 01:48:15;;;;;;;10.33;6.23;;;10.20;99.90;;;;;;5044980;28;20216;-71
2021/11/03 01:50:48;;;;;;;10.67;7.10;;;10.20;99.90;;;;;;5046090;28;20204;-72
2021/11/03 01:53:21;;;;;;;9.03;6.30;;;10.20;99.90;;;;;;5057712;28;20207;-72
2021/11/03 01:55:53;;;;;;;9.87;6.50;;;10.20;99.90;;;;;;5064398;28;20296;-71
2021/11/03 01:58:26;;;;;;;10.67;6.30;;;10.20;99.90;;;;;;5049101;28;20795;-71
2021/11/03 02:00:56;;;;;;;8.70;6.30;;;10.20;99.90;;;;;;5062911;28;20208;-71
2021/11/03 02:03:28;;;;;;;8.63;6.20;;;10.20;99.90;;;;;;5064607;28;20227;-71
2021/11/03 02:06:00;;;;;;;8.80;6.67;;;10.20;99.90;;;;;;5063960;28;20216;-72
2021/11/03 02:08:30;;;;;;;9.97;7.07;;;10.20;99.90;;;;;;5066739;28;20200;-72
2021/11/03 02:10:58;;;;;;;10.50;6.90;;;10.20;99.90;;;;;;5063995;28;20231;-71
2021/11/03 02:13:25;;;;;;;9.07;6.47;;;10.20;99.90;;;;;;5059855;28;20733;-71
2021/11/03 02:15:53;;;;;;;11.23;6.90;;;10.30;99.90;;;;;;5063259;28;20236;-71
2021/11/03 02:18:22;;;;;;;9.27;6.20;;;10.30;99.90;;;;;;5057831;28;20243;-71
2021/11/03 02:20:53;;;;;;;10.67;6.57;;;10.30;99.90;;;;;;5059991;28;20225;-71
2021/11/03 02:23:31;;;;;;;9.10;6.07;;;10.30;99.90;;;;;;5052988;28;20232;-71
2021/11/03 02:26:05;;;;;;;8.13;6.07;;;10.20;99.90;;;;;;5041747;28;20672;-71
2021/11/03 02:28:33;;;;;;;8.60;6.07;;;10.30;99.90;;;;;;5052560;28;20773;-71
2021/11/03 02:31:00;;;;;;;8.43;5.87;;;10.30;99.90;;;;;;5055495;28;20229;-71
2021/11/03 02:33:28;;;;;;;8.83;6.17;;;10.30;99.90;;;;;;5056509;28;20202;-72
2021/11/03 02:35:58;;;;;;;11.23;5.83;;;10.30;99.90;;;;;;5062408;28;20215;-71
2021/11/03 02:38:31;;;;;;;7.67;5.83;;;10.30;99.90;;;;;;5064780;28;20259;-70
2021/11/03 02:41:05;;;;;;;7.30;5.00;;;10.30;99.90;;;;;;5059157;28;20208;-71
2021/11/03 02:43:38;;;;;;;6.87;4.63;;;10.40;99.90;;;;;;5056173;28;20243;-71
2021/11/03 02:46:06;;;;;;;4.60;4.10;;;10.40;99.90;;;;;;5055813;28;20218;-71
2021/11/03 02:48:34;;;;;;;5.83;4.03;;;10.40;99.90;;;;;;5057179;28;20227;-71
2021/11/03 02:51:10;;;;;;;5.00;3.87;;;10.40;99.90;;;;;;5054872;28;20488;-71
2021/11/03 02:53:42;;;;;;;3.50;3.20;;;10.40;99.90;;;;;;5059548;28;20203;-71
2021/11/03 02:56:11;;;;;;;3.90;3.00;;;10.40;99.90;;;;;;5031521;28;20711;-72
2021/11/03 02:58:39;;;;;;;2.83;2.63;;;10.50;99.90;;;;;;5059315;28;20197;-71
2021/11/03 03:01:12;;;;;;;2.00;1.90;;;10.50;99.90;;;;;;5063679;28;20540;-71
2021/11/03 03:03:44;;;;;;;2.33;2.00;;;10.50;99.90;;;;;;5059102;28;20301;-71
2021/11/03 03:06:16;;;;;;;2.17;1.97;;;10.50;99.90;;;;;;5064948;28;20317;-71
2021/11/03 03:08:43;;;;;;;2.13;2.00;;;10.50;99.90;;;;;;5059147;28;20202;-72
2021/11/03 03:11:12;;;;;;;1.60;1.50;;;10.50;99.90;;;;;;5063752;28;20210;-72
2021/11/03 03:13:41;;;;;;;1.80;1.70;;;10.50;99.90;;;;;;5059589;28;20605;-71
2021/11/03 03:16:08;;;;;;;1.50;1.40;;;10.50;99.90;;;;;;5062501;28;20237;-71
2021/11/03 03:18:35;;;;;;;1.43;1.33;;;10.60;99.90;;;;;;5058573;28;20637;-71
2021/11/03 03:21:02;;;;;;;1.30;1.20;;;10.50;99.90;;;;;;5062742;28;20205;-71
2021/11/03 03:23:29;;;;;;;1.00;1.00;;;10.60;99.90;;;;;;5057648;28;20637;-71
2021/11/03 03:26:00;;;;;;;1.37;1.27;;;10.50;99.90;;;;;;5062211;28;20233;-71
2021/11/03 03:28:29;;;;;;;0.97;0.97;;;10.60;99.90;;;;;;5056770;28;20298;-72
2021/11/03 03:30:56;;;;;;;1.33;1.10;;;10.60;99.90;;;;;;5060520;28;20333;-72
2021/11/03 03:33:24;;;;;;;1.30;1.20;;;10.60;99.90;;;;;;5055276;28;20217;-71
2021/11/03 03:35:51;;;;;;;1.30;1.20;;;10.60;99.90;;;;;;5061211;28;20220;-71
2021/11/03 03:38:19;;;;;;;1.10;1.10;;;10.60;99.90;;;;;;5054975;28;20773;-72
2021/11/03 03:40:46;;;;;;;1.33;1.23;;;10.60;99.90;;;;;;5045440;28;20680;-71
2021/11/03 03:43:13;;;;;;;1.30;1.20;;;10.60;99.90;;;;;;5053145;28;20584;-71
2021/11/03 03:45:42;;;;;;;1.20;1.10;;;10.60;99.90;;;;;;5046108;28;20199;-71
2021/11/03 03:48:09;;;;;;;1.23;1.20;;;10.60;99.90;;;;;;5053410;28;20225;-72
2021/11/03 03:50:37;;;;;;;1.07;1.07;;;10.60;99.90;;;;;;5044449;28;20252;-72
2021/11/03 03:53:05;;;;;;;1.30;1.20;;;10.70;99.90;;;;;;5043757;28;20568;-72
2021/11/03 03:55:32;;;;;;;1.10;1.10;;;10.60;99.90;;;;;;5064138;28;20754;-72
2021/11/03 03:58:00;;;;;;;1.30;1.20;;;10.70;99.90;;;;;;5039708;28;20231;-72
2021/11/03 04:00:28;;;;;;;1.40;1.30;;;10.70;99.90;;;;;;5056795;28;20420;-72
2021/11/03 04:02:57;;;;;;;1.67;1.57;;;10.70;99.90;;;;;;5064983;28;20197;-72
2021/11/03 04:05:26;;;;;;;1.40;1.30;;;10.70;99.90;;;;;;5057985;28;20205;-72
2021/11/03 04:07:55;;;;;;;1.27;1.13;;;10.70;99.90;;;;;;5065062;28;20700;-72
2021/11/03 04:10:22;;;;;;;1.20;1.20;;;10.70;99.90;;;;;;5058531;28;20402;-72
2021/11/03 04:12:51;;;;;;;1.50;1.40;;;10.70;99.90;;;;;;5063297;28;20201;-72
2021/11/03 04:15:20;;;;;;;1.40;1.30;;;10.70;99.90;;;;;;5061873;28;20235;-72
2021/11/03 04:17:47;;;;;;;1.30;1.30;;;10.70;99.90;;;;;;5066765;28;20226;-72
2021/11/03 04:20:17;;;;;;;1.47;1.37;;;10.70;99.90;;;;;;5064009;28;20209;-72
2021/11/03 04:22:45;;;;;;;1.00;1.00;;;10.80;99.90;;;;;;5066747;28;20200;-72
2021/11/03 04:25:13;;;;;;;0.90;0.80;;;10.70;99.90;;;;;;5053987;28;20287;-71
2021/11/03 04:27:41;;;;;;;1.13;1.13;;;10.80;99.90;;;;;;5066719;28;20298;-72
2021/11/03 04:30:13;;;;;;;1.47;1.00;;;10.80;99.90;;;;;;5057032;28;20205;-71
2021/11/03 04:32:41;;;;;;;1.17;1.07;;;10.80;99.90;;;;;;5057698;28;20436;-72
2021/11/03 04:35:09;;;;;;;1.40;1.30;;;10.80;99.90;;;;;;5061548;28;20725;-71
2021/11/03 04:37:39;;;;;;;1.43;1.37;;;10.80;99.90;;;;;;5061088;28;20208;-71
2021/11/03 04:40:10;;;;;;;1.47;1.37;;;10.80;99.90;;;;;;5066510;28;20213;-71
2021/11/03 04:42:38;;;;;;;1.80;1.70;;;10.80;99.90;;;;;;5050777;28;20855;-72
2021/11/03 04:45:08;;;;;;;1.97;1.87;;;10.70;99.90;;;;;;5050587;28;20679;-71
2021/11/03 04:47:35;;;;;;;2.03;1.93;;;10.70;99.90;;;;;;5056842;28;20620;-72
2021/11/03 04:50:04;;;;;;;1.60;1.50;;;10.70;99.90;;;;;;5059873;28;20235;-71
2021/11/03 04:52:33;;;;;;;2.17;2.00;;;10.70;99.90;;;;;;5055299;28;20215;-71
2021/11/03 04:55:01;;;;;;;2.50;2.10;;;10.70;99.90;;;;;;5070158;28;20211;-71
2021/11/03 04:57:29;;;;;;;1.70;1.60;;;10.70;99.90;;;;;;5053302;28;20215;-72
2021/11/03 05:00:01;;;;;;;2.27;2.07;;;10.70;99.90;;;;;;5067877;28;20258;-72
2021/11/03 05:02:29;;;;;;;2.63;1.80;;;10.70;99.90;;;;;;5065638;28;20199;-71
2021/11/03 05:04:57;;;;;;;1.60;1.50;;;10.70;99.90;;;;;;5064546;28;20597;-71
2021/11/03 05:07:24;;;;;;;1.83;1.73;;;10.70;99.90;;;;;;5062218;28;20214;-72
2021/11/03 05:09:51;;;;;;;1.93;1.77;;;10.70;99.90;;;;;;5058135;28;20196;-71
2021/11/03 05:12:20;;;;;;;2.10;1.90;;;10.70;99.90;;;;;;5058595;28;20569;-71
2021/11/03 05:14:47;;;;;;;2.50;2.30;;;10.70;99.90;;;;;;5063099;28;20209;-71
2021/11/03 05:17:15;;;;;;;3.03;2.00;;;10.70;99.90;;;;;;5060604;28;20201;-71
2021/11/03 05:19:43;;;;;;;2.70;2.50;;;10.70;99.90;;;;;;5065912;28;20764;-72
2021/11/03 05:22:24;;;;;;;2.57;2.37;;;10.70;99.90;;;;;;5057106;28;20266;-72
2021/11/03 05:24:51;;;;;;;3.33;3.00;;;10.70;99.90;;;;;;5061448;28;20270;-72
2021/11/03 05:27:20;;;;;;;3.93;3.00;;;10.70;99.90;;;;;;5061937;28;20229;-72
2021/11/03 05:29:47;;;;;;;3.27;2.97;;;10.70;99.90;;;;;;5061223;28;20295;-72
2021/11/03 05:32:14;;;;;;;3.03;2.60;;;10.70;99.90;;;;;;5057405;28;20564;-73
2021/11/03 05:34:41;;;;;;;2.50;2.30;;;10.70;99.90;;;;;;5061799;28;20201;-72
2021/11/03 05:37:08;;;;;;;2.50;2.30;;;10.70;99.90;;;;;;5060756;28;20594;-71
2021/11/03 05:39:35;;;;;;;2.77;2.37;;;10.70;99.90;;;;;;5060394;28;20204;-72
2021/11/03 05:42:02;;;;;;;2.53;2.33;;;10.70;99.90;;;;;;5060479;28;20558;-71
2021/11/03 05:44:30;;;;;;;2.43;2.23;;;10.70;99.90;;;;;;5056589;28;20248;-72
2021/11/03 05:46:59;;;;;;;2.70;2.50;;;10.80;99.90;;;;;;5057362;28;20684;-72
2021/11/03 05:49:29;;;;;;;3.20;2.90;;;10.70;99.90;;;;;;5057255;28;20204;-71
2021/11/03 05:51:57;;;;;;;3.30;3.00;;;10.80;99.90;;;;;;5050720;28;20204;-72
2021/11/03 05:54:26;;;;;;;3.27;2.97;;;10.70;99.90;;;;;;5065648;28;20192;-72
2021/11/03 05:56:54;;;;;;;3.57;2.97;;;10.70;99.90;;;;;;5052881;28;20205;-72
2021/11/03 05:59:22;;;;;;;2.87;2.67;;;10.70;99.90;;;;;;5039469;28;20209;-72
2021/11/03 06:01:50;;;;;;;3.50;3.20;;;10.70;99.90;;;;;;5065596;28;20579;-71
2021/11/03 06:04:17;;;;;;;3.33;3.03;;;10.70;99.90;;;;;;5061311;28;20588;-72
2021/11/03 06:06:44;;;;;;;2.47;2.27;;;10.70;99.90;;;;;;5059304;28;20690;-72
2021/11/03 06:09:11;;;;;;;2.83;2.40;;;10.70;99.90;;;;;;5079985;28;20299;-72
2021/11/03 06:11:42;;;;;;;2.30;2.10;;;10.70;99.90;;;;;;5057456;28;20567;-71
2021/11/03 06:14:10;;;;;;;2.20;2.00;;;10.70;99.90;;;;;;5063753;28;20215;-72
2021/11/03 06:16:38;;;;;;;2.10;2.00;;;10.70;99.90;;;;;;5064230;28;20606;-71
2021/11/03 06:19:06;;;;;;;3.03;2.50;;;10.70;99.90;;;;;;5065909;28;20656;-71
2021/11/03 06:21:33;;;;;;;2.17;2.00;;;10.70;99.90;;;;;;5064048;28;20213;-72
2021/11/03 06:24:01;;;;;;;1.63;1.53;;;10.70;99.90;;;;;;5062592;28;20211;-72
2021/11/03 06:26:28;;;;;;;2.17;2.07;;;10.80;99.90;;;;;;5062653;28;20234;-72
2021/11/03 06:28:55;;;;;;;2.00;1.90;;;10.80;99.90;;;;;;5061962;28;20295;-72
2021/11/03 06:31:22;;;;;;;2.77;2.00;;;10.80;99.90;;;;;;5055299;28;20219;-72
2021/11/03 06:33:50;;;;;;;1.90;1.80;;;10.80;99.90;;;;;;5061313;28;20282;-72
2021/11/03 06:36:19;;;;;;;2.10;2.00;;;10.80;99.90;;;;;;5059943;28;20205;-72
2021/11/03 06:38:47;;;;;;;2.20;1.93;;;10.80;99.90;;;;;;5059631;28;20205;-72
2021/11/03 06:41:15;;;;;;;2.20;2.03;;;10.80;99.90;;;;;;5059470;28;20674;-72
2021/11/03 06:43:43;;;;;;;2.00;1.90;;;10.80;99.90;;;;;;5060477;28;20211;-72
2021/11/03 06:46:10;;;;;;;2.53;2.33;;;10.80;99.90;;;;;;5057121;28;20729;-72
2021/11/03 06:48:38;;;;;;;2.13;2.03;;;10.80;99.90;;;;;;5058809;28;20321;-72
2021/11/03 06:51:05;;;;;;;2.13;2.03;;;10.90;99.90;;;;;;5050211;28;20312;-72
2021/11/03 06:53:33;;;;;;;3.07;2.87;;;10.80;99.90;;;;;;5050331;28;20416;-72
2021/11/03 06:56:00;;;;;;;3.40;3.10;;;10.80;99.90;;;;;;5061756;28;20577;-72
2021/11/03 06:58:29;;;;;;;2.70;2.50;;;10.80;99.90;;;;;;5057560;28;20213;-72
2021/11/03 07:00:57;;;;;;;3.07;2.80;;;10.80;99.90;;;;;;5065232;28;20226;-72
2021/11/03 07:03:25;;;;;;;2.57;2.37;;;10.80;99.90;;;;;;5065060;28;20194;-72
2021/11/03 07:05:53;;;;;;;2.30;2.10;;;10.80;99.90;;;;;;5061733;28;20237;-72
2021/11/03 07:08:21;;;;;;;2.67;2.47;;;10.80;99.90;;;;;;5058376;28;20194;-72
2021/11/03 07:10:52;;;;;;;2.60;2.40;;;10.90;99.90;;;;;;5060494;28;20193;-72
2021/11/03 07:13:22;;;;;;;3.03;2.73;;;10.80;99.90;;;;;;5063845;28;20200;-72
2021/11/03 07:15:49;;;;;;;3.20;2.90;;;10.90;99.90;;;;;;5058629;28;20228;-72
2021/11/03 07:18:16;;;;;;;3.13;2.80;;;10.90;99.90;;;;;;5061819;28;20205;-72
2021/11/03 07:20:43;;;;;;;3.43;3.13;;;10.80;99.90;;;;;;5060847;28;20200;-72
2021/11/03 07:23:11;;;;;;;3.63;3.00;;;10.90;99.90;;;;;;5061258;28;20220;-72
2021/11/03 07:25:38;;;;;;;3.77;3.47;;;10.80;99.90;;;;;;5057455;28;20779;-72
2021/11/03 07:28:07;;;;;;;7.07;3.97;;;10.80;99.90;;;;;;5058155;28;20279;-72
2021/11/03 07:30:35;;;;;;;3.50;3.17;;;10.90;99.90;;;;;;5057284;28;20270;-72
2021/11/03 07:33:03;;;;;;;3.00;2.80;;;10.90;99.90;;;;;;5056963;28;20850;-72
2021/11/03 07:35:30;;;;;;;2.80;2.60;;;10.90;99.90;;;;;;5049898;28;20198;-72
2021/11/03 07:37:59;;;;;;;3.30;3.00;;;10.90;99.90;;;;;;5043993;28;20205;-72
2021/11/03 07:40:28;;;;;;;3.73;3.20;;;11.00;99.90;;;;;;5053598;28;20280;-72
2021/11/03 07:42:58;;;;;;;4.20;3.30;;;11.00;99.90;;;;;;5053505;28;20206;-72
2021/11/03 07:45:29;;;;;;;3.07;2.77;;;11.00;99.90;;;;;;5053245;28;20759;-72
2021/11/03 07:47:56;;;;;;;4.60;3.13;;;11.10;99.90;;;;;;5051162;28;20304;-71
2021/11/03 07:50:26;;;;;;;5.57;3.60;;;11.10;99.90;;;;;;5035488;28;20307;-72
2021/11/03 07:52:53;;;;;;;4.07;3.47;;;11.10;99.90;;;;;;5063768;28;20209;-72
2021/11/03 07:55:20;;;;;;;4.27;3.83;;;11.20;99.90;;;;;;5056542;28;20438;-72
2021/11/03 07:57:47;;;;;;;5.60;3.50;;;11.20;99.90;;;;;;5047739;28;20212;-72
2021/11/03 08:00:22;;;;;;;4.20;3.40;;;11.20;99.90;;;;;;5039246;28;20214;-72
2021/11/03 08:02:50;;;;;;;4.43;3.57;;;11.20;99.90;;;;;;5039103;28;20690;-72
2021/11/03 08:05:18;;;;;;;2.97;2.70;;;11.20;99.90;;;;;;5060019;28;20220;-72
2021/11/03 08:07:45;;;;;;;6.57;4.33;;;11.30;99.90;;;;;;5060503;28;20219;-72
2021/11/03 08:10:14;;;;;;;4.50;3.60;;;11.30;99.90;;;;;;5053233;28;20277;-72
2021/11/03 08:12:42;;;;;;;5.07;4.00;;;11.40;99.90;;;;;;5053761;28;20213;-72
2021/11/03 08:15:11;;;;;;;3.77;3.30;;;11.50;99.90;;;;;;5044270;28;20437;-72
2021/11/03 08:17:40;;;;;;;3.77;3.10;;;11.50;99.90;;;;;;5065558;28;20212;-72
2021/11/03 08:20:17;;;;;;;6.90;5.10;;;11.60;99.90;;;;;;5036340;28;20680;-72
2021/11/03 08:22:44;;;;;;;5.00;4.20;;;11.70;99.90;;;;;;5056700;28;20207;-72
2021/11/03 08:25:12;;;;;;;4.47;3.60;;;11.80;99.90;;;;;;5043135;28;20512;-72
2021/11/03 08:27:40;;;;;;;3.90;3.50;;;11.80;99.90;;;;;;5037667;28;20202;-72
2021/11/03 08:30:10;;;;;;;3.10;2.80;;;11.90;99.90;;;;;;5052428;28;20301;-72
2021/11/03 08:32:42;;;;;;;4.57;3.60;;;11.90;99.90;;;;;;5050760;28;20198;-72
2021/11/03 08:35:13;;;;;;;4.70;4.20;;;12.00;99.90;;;;;;5055052;28;20200;-72
2021/11/03 08:37:41;;;;;;;3.97;3.50;;;12.10;99.90;;;;;;5052308;28;20302;-71
2021/11/03 08:40:13;;;;;;;4.27;3.53;;;12.20;99.90;;;;;;5044976;28;20325;-72
2021/11/03 08:42:40;;;;;;;3.47;3.17;;;12.30;99.90;;;;;;5044888;28;20206;-73
2021/11/03 08:45:10;;;;;;;4.50;3.20;;;12.40;99.90;;;;;;5052334;28;20663;-72
2021/11/03 08:47:38;;;;;;;3.67;3.37;;;12.50;99.90;;;;;;5045154;28;20550;-72
2021/11/03 08:50:07;;;;;;;4.53;3.77;;;12.60;99.90;;;;;;5046146;28;20222;-73
2021/11/03 08:52:35;;;;;;;4.17;3.83;;;12.70;99.90;;;;;;5045139;28;20207;-73
2021/11/03 08:55:02;;;;;;;4.73;4.10;;;12.80;99.90;;;;;;5049907;28;20208;-73
2021/11/03 08:57:29;;;;;;;6.40;4.40;;;12.80;99.90;;;;;;5049240;28;20199;-73
2021/11/03 08:59:58;;;;;;;4.10;3.70;;;12.80;99.90;;;;;;5040458;28;20202;-73
2021/11/03 09:02:25;;;;;;;4.10;3.70;;;12.90;99.90;;;;;;5053511;28;20255;-73
2021/11/03 09:04:53;;;;;;;4.77;3.70;;;13.00;99.90;;;;;;5050212;28;20213;-73
2021/11/03 09:07:20;;;;;;;7.30;4.97;;;13.00;99.90;;;;;;5052716;28;20678;-73
2021/11/03 09:09:49;;;;;;;4.40;4.00;;;13.10;99.90;;;;;;5038797;28;21087;-73
2021/11/03 09:12:16;;;;;;;5.27;3.97;;;13.20;99.90;;;;;;5051621;28;20297;-74
2021/11/03 09:14:44;;;;;;;4.70;3.67;;;13.40;99.90;;;;;;5046032;28;20223;-73
2021/11/03 09:17:12;;;;;;;4.23;3.60;;;13.40;99.90;;;;;;5064379;28;20542;-73
2021/11/03 09:19:41;;;;;;;3.70;3.30;;;13.50;99.90;;;;;;5046358;28;20195;-73
2021/11/03 09:22:08;;;;;;;4.23;3.83;;;13.60;99.90;;;;;;5044575;28;20198;-74
2021/11/03 09:24:36;;;;;;;4.50;3.73;;;13.70;99.90;;;;;;5047013;28;20570;-74
2021/11/03 09:27:12;;;;;;;3.23;2.93;;;13.70;99.90;;;;;;5053295;28;20219;-75
2021/11/03 09:29:39;;;;;;;2.63;2.43;;;13.70;99.90;;;;;;5043099;28;20203;-73
2021/11/03 09:32:11;;;;;;;4.00;3.50;;;13.80;99.90;;;;;;5048839;28;20197;-73
2021/11/03 09:34:40;;;;;;;4.80;3.77;;;13.90;99.90;;;;;;5045954;28;20195;-73
2021/11/03 09:37:09;;;;;;;3.73;3.43;;;14.10;99.90;;;;;;5047141;28;20186;-73
2021/11/03 09:39:36;;;;;;;4.23;3.17;;;14.30;99.90;;;;;;5047729;28;20204;-73
2021/11/03 09:42:05;;;;;;;3.70;3.40;;;14.70;99.90;;;;;;5039698;28;20690;-74
2021/11/03 09:44:35;;;;;;;4.60;3.40;;;15.10;99.90;;;;;;5042935;28;20216;-74
2021/11/03 09:47:16;;;;;;;4.80;4.00;;;15.50;99.90;;;;;;5049232;28;20413;-73
2021/11/03 09:49:49;;;;;;;5.30;4.67;;;15.70;99.90;;;;;;5041455;28;20239;-73
2021/11/03 09:52:20;;;;;;;5.83;4.10;;;16.00;99.90;;;;;;5047849;28;20215;-72
2021/11/03 09:54:50;;;;;;;6.07;3.57;;;16.30;99.90;;;;;;5048001;28;20204;-72
2021/11/03 09:57:23;;;;;;;5.93;4.20;;;16.70;99.90;;;;;;5047520;28;20218;-74
2021/11/03 09:59:57;;;;;;;3.97;3.53;;;17.30;99.90;;;;;;5033747;28;20343;-75
2021/11/03 10:02:37;;;;;;;6.13;3.73;;;18.00;99.90;;;;;;5047396;28;20695;-76
2021/11/03 10:05:18;;;;;;;4.73;3.50;;;18.40;99.90;;;;;;5046654;28;20809;-76
2021/11/03 10:07:50;;;;;;;5.23;3.73;;;18.40;99.90;;;;;;5045512;28;20631;-76
2021/11/03 10:10:28;;;;;;;4.37;3.30;;;18.50;99.90;;;;;;5049868;28;20592;-76
2021/11/03 10:12:57;;;;;;;4.33;3.77;;;18.80;99.90;;;;;;5051779;28;20202;-75
2021/11/03 10:15:25;;;;;;;3.73;3.20;;;18.90;99.90;;;;;;5041730;28;20227;-76
2021/11/03 10:18:16;;;;;;;3.60;3.03;;;19.00;99.90;;;;;;5055270;28;20215;-76
2021/11/03 10:20:47;;;;;;;3.63;2.95;;;18.90;99.90;;;;;;5047609;28;20446;-75
2021/11/03 10:23:21;;;;;;;3.00;2.80;;;19.00;99.90;;;;;;5043002;28;20209;-75
2021/11/03 10:25:56;;;;;;;4.03;2.70;;;19.40;99.90;;;;;;5058619;28;20220;-75
2021/11/03 10:28:36;;;;;;;4.05;3.10;;;20.00;99.70;;;;;;5045951;28;20250;-75
2021/11/03 10:31:06;;;;;;;3.50;3.20;;;20.20;98.70;;;;;;5035014;28;20936;-74
2021/11/03 10:33:39;;;;;;;2.67;2.47;;;19.90;98.20;;;;;;5047449;28;20324;-73
2021/11/03 10:36:16;;;;;;;2.90;2.60;;;19.70;98.20;;;;;;5055176;28;20536;-72
2021/11/03 10:38:48;;;;;;;2.80;2.60;;;19.40;98.20;;;;;;5045466;28;20228;-73
2021/11/03 10:41:21;;;;;;;2.55;2.35;;;19.10;98.40;;;;;;5038755;28;20267;-73
2021/11/03 10:44:00;;;;;;;2.53;2.33;;;18.90;98.40;;;;;;5053879;28;20207;-74
2021/11/03 10:46:31;;;;;;;2.87;2.60;;;18.80;98.40;;;;;;5040464;28;20235;-74
2021/11/03 10:49:13;;;;;;;2.35;2.25;;;18.80;98.40;;;;;;5059645;28;20201;-74
2021/11/03 10:51:43;;;;;;;2.58;2.33;;;18.80;98.30;;;;;;5052575;28;20252;-74
2021/11/03 10:54:13;;;;;;;4.05;2.25;;;18.80;98.10;;;;;;5053613;28;20254;-73
2021/11/03 10:56:52;;;;;;;3.08;2.42;;;18.90;98.10;;;;;;5034500;28;20202;-74
2021/11/03 10:59:32;;;;;;;3.80;2.08;;;19.00;97.70;;;;;;5045292;28;20205;-73
2021/11/03 11:02:22;;;;;;;5.05;2.40;;;18.90;97.50;;;;;;5042832;28;20489;-74
2021/11/03 11:04:50;;;;;;;8.02;2.47;;;18.90;97.50;;;;;;5044002;28;20197;-73
2021/11/03 11:07:26;;;;;;;3.80;2.67;;;18.80;97.30;;;;;;5042835;28;20218;-73
2021/11/03 11:10:00;;;;;;;2.20;2.00;;;18.60;97.10;;;;;;5043154;28;20228;-73
2021/11/03 11:12:30;;;;;;;2.70;2.50;;;18.40;97.20;;;;;;5047647;28;20679;-74
2021/11/03 11:15:02;;;;;;;4.35;2.05;;;18.30;97.20;;;;;;5041612;28;20202;-73
2021/11/03 11:17:35;;;;;;;2.30;2.10;;;18.10;97.20;;;;;;5056847;28;20209;-73
2021/11/03 11:20:13;;;;;;;2.20;2.00;;;17.90;97.20;;;;;;5036627;28;20216;-73
2021/11/03 11:22:56;;;;;;;2.77;2.37;;;17.80;97.30;;;;;;5046425;28;20210;-73
2021/11/03 11:25:27;;;;;;;3.40;2.30;;;17.60;97.30;;;;;;5043753;28;20554;-73
2021/11/03 11:28:14;;;;;;;2.33;1.80;;;17.40;97.40;;;;;;5044022;28;20200;-74
2021/11/03 11:30:48;;;;;;;1.60;1.50;;;17.30;97.60;;;;;;5039435;28;20231;-70
2021/11/03 11:33:24;;;;;;;1.73;1.63;;;17.00;97.70;;;;;;5040382;28;20519;-72
2021/11/03 11:36:09;;;;;;;2.20;2.00;;;16.90;97.90;;;;;;5056178;28;20659;-72
2021/11/03 11:38:45;;;;;;;2.10;2.00;;;16.80;97.80;;;;;;5048176;28;20463;-70
2021/11/03 11:41:17;;;;;;;2.80;2.50;;;16.60;97.90;;;;;;5039713;28;20866;-73
2021/11/03 11:43:49;;;;;;;3.10;2.80;;;16.50;98.10;;;;;;5043158;28;20208;-72
2021/11/03 11:46:20;;;;;;;3.23;2.90;;;16.30;97.90;;;;;;5041581;28;20334;-72
2021/11/03 11:48:50;;;;;;;5.63;2.60;;;16.20;97.70;;;;;;5044653;28;20621;-72
2021/11/03 11:51:24;;;;;;;2.50;2.30;;;16.00;97.70;;;;;;5047947;28;20194;-73
2021/11/03 11:54:27;;;;;;;3.90;2.60;;;15.90;97.60;;;;;;5041403;28;20572;-72
2021/11/03 11:57:25;;;;;;;2.00;1.80;;;15.80;97.60;;;;;;5037130;28;20202;-73
2021/11/03 12:00:23;;;;;;;1.90;1.80;;;15.60;97.80;;;;;;4962915;28;20203;-72
2021/11/03 12:03:17;;;;;;;1.97;1.80;;;15.50;97.80;;;;;;4950396;28;20299;-71
2021/11/03 12:06:13;;;;;;;3.00;2.70;;;15.40;97.90;;;;;;4942601;28;20303;-72
2021/11/03 12:08:58;;;;;;;2.50;2.30;;;15.30;97.90;;;;;;4895436;29;20448;-73
2021/11/03 12:11:28;;;;;;;2.43;2.23;;;15.20;98.40;;;;;;4873704;29;20294;-72
2021/11/03 12:14:24;;;;;;;2.67;2.47;;;15.20;98.50;;;;;;4886191;29;20631;-72
2021/11/03 12:16:58;;;;;;;5.80;3.13;;;15.20;98.60;;;;;;4869036;29;20239;-73
2021/11/03 12:19:51;;;;;;;3.33;3.03;;;15.20;98.60;;;;;;4883979;29;20304;-72
2021/11/03 12:22:42;;;;;;;4.87;4.10;;;15.10;98.60;;;;;;4884062;29;20298;-73
2021/11/03 12:25:42;;;;;;;4.80;4.30;;;15.10;98.70;;;;;;4889076;29;20258;-72
2021/11/03 12:28:45;;;;;;;3.63;3.30;;;15.00;98.90;;;;;;4832277;29;20449;-74
2021/11/03 12:31:30;;;;;;;3.20;2.90;;;15.00;99.10;;;;;;4827383;29;20209;-73
2021/11/03 12:34:19;;;;;;;3.27;2.70;;;14.90;99.00;;;;;;4827508;29;20220;-73
2021/11/03 12:36:58;;;;;;;3.33;3.10;;;14.80;98.90;;;;;;4818295;29;20209;-73
2021/11/03 12:39:51;;;;;;;3.50;3.00;;;14.80;99.00;;;;;;4820266;29;20253;-73
2021/11/03 12:42:24;;;;;;;2.90;2.70;;;14.70;99.00;;;;;;4781839;29;20297;-73
2021/11/03 12:44:57;;;;;;;3.00;2.77;;;14.70;99.00;;;;;;4850240;29;20237;-74
2021/11/03 12:47:28;;;;;;;2.47;2.10;;;14.50;99.00;;;;;;4890808;29;20230;-73
2021/11/03 12:50:06;;;;;;;3.00;2.70;;;14.40;99.10;;;;;;4889921;29;20214;-73
2021/11/03 12:52:39;;;;;;;4.53;3.17;;;14.30;99.20;;;;;;4891246;29;20209;-73
2021/11/03 12:55:07;;;;;;;2.90;2.60;;;14.30;99.40;;;;;;4887957;29;20683;-73
2021/11/03 12:57:36;;;;;;;2.43;2.17;;;14.20;99.50;;;;;;4891581;29;20296;-73
2021/11/03 13:00:08;;;;;;;2.30;2.20;;;14.20;99.60;;;;;;4887271;29;20687;-73
2021/11/03 13:02:40;;;;;;;3.63;3.20;;;14.10;99.90;;;;;;4943671;28;20282;-73
2021/11/03 13:05:19;;;;;;;4.73;3.20;;;14.00;99.60;;;;;;4954165;28;20619;-73